Time;durP1;ratioP1;P1;durP2;ratioP2;P2;SDS_P1;SDS_P2;PMS_P1;PMS_P2;Temp;Humidity;BMP_temperature;BMP_pressure;BME280_temperature;BME280_humidity;BME280_pressure;Samples;Min_cycle;Max_cycle;Signal;HPM_P1;HPM_P2
2022/12/16 00:01:08;;;;;;;62.15;39.38;;;;;;;;;;5111282;28;20419;-78
2022/12/16 00:03:34;;;;;;;56.22;37.72;;;;;;;;;;5097481;28;20418;-78
2022/12/16 00:06:03;;;;;;;60.92;37.80;;;;;;;;;;5093473;28;20432;-78
2022/12/16 00:08:29;;;;;;;57.58;39.08;;;;;;;;;;5097784;28;20428;-78
2022/12/16 00:10:59;;;;;;;63.85;40.13;;;;;;;;;;5106652;28;20416;-78
2022/12/16 00:13:25;;;;;;;62.05;37.83;;;;;;;;;;5095652;28;20429;-78
2022/12/16 00:15:51;;;;;;;58.42;38.13;;;;;;;;;;5112918;28;20813;-78
2022/12/16 00:18:18;;;;;;;59.70;38.35;;;;;;;;;;5101990;28;20794;-78
2022/12/16 00:20:48;;;;;;;57.50;38.40;;;;;;;;;;5096521;28;20414;-78
2022/12/16 00:23:15;;;;;;;59.85;38.05;;;;;;;;;;5092395;28;20539;-79
2022/12/16 00:25:42;;;;;;;59.25;37.58;;;;;;;;;;5097774;28;20412;-78
2022/12/16 00:28:08;;;;;;;59.08;37.88;;;;;;;;;;5088195;28;20418;-78
2022/12/16 00:30:34;;;;;;;58.25;38.55;;;;;;;;;;5092274;28;20419;-78
2022/12/16 00:33:00;;;;;;;58.77;37.77;;;;;;;;;;5095102;28;20516;-78
2022/12/16 00:35:26;;;;;;;58.97;37.33;;;;;;;;;;5083777;28;20925;-78
2022/12/16 00:37:53;;;;;;;58.22;36.95;;;;;;;;;;5113169;27;20428;-78
2022/12/16 00:40:19;;;;;;;53.25;35.72;;;;;;;;;;5107256;27;20422;-78
2022/12/16 00:42:45;;;;;;;53.97;34.03;;;;;;;;;;5115470;27;20391;-77
2022/12/16 00:45:11;;;;;;;55.78;33.83;;;;;;;;;;5102395;27;20910;-78
2022/12/16 00:47:37;;;;;;;54.25;31.80;;;;;;;;;;5098644;27;20484;-78
2022/12/16 00:50:03;;;;;;;48.10;30.60;;;;;;;;;;5109256;28;20895;-78
2022/12/16 00:52:29;;;;;;;50.33;31.52;;;;;;;;;;5078610;28;20443;-78
2022/12/16 00:54:55;;;;;;;49.67;29.80;;;;;;;;;;5081874;27;20411;-78
2022/12/16 00:57:22;;;;;;;47.20;30.38;;;;;;;;;;5100392;27;20477;-78
2022/12/16 00:59:48;;;;;;;49.45;30.00;;;;;;;;;;5096366;27;20445;-78
2022/12/16 01:02:14;;;;;;;44.97;28.47;;;;;;;;;;5115187;27;20993;-77
2022/12/16 01:04:40;;;;;;;44.38;27.77;;;;;;;;;;5115390;27;20481;-77
2022/12/16 01:07:06;;;;;;;42.83;27.23;;;;;;;;;;5104808;28;20420;-78
2022/12/16 01:09:32;;;;;;;41.45;27.85;;;;;;;;;;5125452;27;20466;-78
2022/12/16 01:11:58;;;;;;;44.17;27.47;;;;;;;;;;5111257;27;20425;-78
2022/12/16 01:14:25;;;;;;;39.55;27.00;;;;;;;;;;5114722;27;20803;-77
2022/12/16 01:16:51;;;;;;;45.00;27.95;;;;;;;;;;5089028;28;20416;-78
2022/12/16 01:19:17;;;;;;;44.95;26.42;;;;;;;;;;5113520;27;20415;-78
2022/12/16 01:21:43;;;;;;;42.22;27.25;;;;;;;;;;5105959;27;20747;-78
2022/12/16 01:24:10;;;;;;;39.67;26.30;;;;;;;;;;5098688;28;20412;-78
2022/12/16 01:26:38;;;;;;;43.97;25.10;;;;;;;;;;5105421;27;20438;-78
2022/12/16 01:29:04;;;;;;;35.75;23.60;;;;;;;;;;5102698;28;20412;-77
2022/12/16 01:31:30;;;;;;;41.20;22.90;;;;;;;;;;5102510;28;20450;-77
2022/12/16 01:33:56;;;;;;;34.22;21.70;;;;;;;;;;5108105;28;20418;-78
2022/12/16 01:36:22;;;;;;;33.88;21.02;;;;;;;;;;5110834;28;20505;-78
2022/12/16 01:38:48;;;;;;;30.20;19.67;;;;;;;;;;5114257;28;20414;-78
2022/12/16 01:41:15;;;;;;;29.25;18.17;;;;;;;;;;5111052;28;20424;-78
2022/12/16 01:43:43;;;;;;;27.95;16.08;;;;;;;;;;5114983;28;20395;-78
2022/12/16 01:46:15;;;;;;;29.70;15.75;;;;;;;;;;5105546;28;20927;-79
2022/12/16 01:48:47;;;;;;;24.67;14.82;;;;;;;;;;5097437;28;20431;-78
2022/12/16 01:51:18;;;;;;;23.02;13.93;;;;;;;;;;5103650;28;20424;-78
2022/12/16 01:53:45;;;;;;;23.20;12.88;;;;;;;;;;5113738;28;20398;-78
2022/12/16 01:56:13;;;;;;;21.92;12.32;;;;;;;;;;5086626;28;20461;-78
2022/12/16 01:58:40;;;;;;;20.90;11.27;;;;;;;;;;5107692;28;20506;-78
2022/12/16 02:01:06;;;;;;;22.35;12.00;;;;;;;;;;5113477;28;20418;-79
2022/12/16 02:03:34;;;;;;;21.80;11.57;;;;;;;;;;5078313;28;20415;-77
2022/12/16 02:06:01;;;;;;;21.80;11.23;;;;;;;;;;5099836;28;20445;-78
2022/12/16 02:08:27;;;;;;;18.48;9.98;;;;;;;;;;5111920;28;20414;-78
2022/12/16 02:10:59;;;;;;;18.98;10.18;;;;;;;;;;5109907;28;20422;-78
2022/12/16 02:13:28;;;;;;;17.35;7.93;;;;;;;;;;5110342;28;20417;-78
2022/12/16 02:16:00;;;;;;;15.90;7.50;;;;;;;;;;5130416;28;20510;-78
2022/12/16 02:18:35;;;;;;;14.02;7.97;;;;;;;;;;5105527;27;20402;-78
2022/12/16 02:21:07;;;;;;;13.25;7.60;;;;;;;;;;5095241;28;20764;-78
2022/12/16 02:23:52;;;;;;;14.18;7.13;;;;;;;;;;5109704;27;20419;-78
2022/12/16 02:26:37;;;;;;;14.00;6.85;;;;;;;;;;5115892;27;20492;-77
2022/12/16 02:29:15;;;;;;;11.50;6.68;;;;;;;;;;5105222;28;20420;-77
2022/12/16 02:31:54;;;;;;;13.20;7.30;;;;;;;;;;5113329;27;20414;-77
2022/12/16 02:34:32;;;;;;;15.93;7.03;;;;;;;;;;5094981;27;20418;-77
2022/12/16 02:36:58;;;;;;;11.98;6.70;;;;;;;;;;5114504;27;20457;-76
2022/12/16 02:39:31;;;;;;;11.43;6.50;;;;;;;;;;5081773;28;20423;-77
2022/12/16 02:41:57;;;;;;;11.95;6.32;;;;;;;;;;5097602;28;20392;-77
2022/12/16 02:44:30;;;;;;;14.98;7.00;;;;;;;;;;5092737;27;20399;-78
2022/12/16 02:46:56;;;;;;;13.75;6.53;;;;;;;;;;5117496;27;20434;-78
2022/12/16 02:49:22;;;;;;;12.48;6.43;;;;;;;;;;5117710;27;20410;-78
2022/12/16 02:51:48;;;;;;;13.63;6.95;;;;;;;;;;5114501;27;20429;-78
2022/12/16 02:54:16;;;;;;;12.80;6.68;;;;;;;;;;5099250;27;20787;-77
2022/12/16 02:56:48;;;;;;;12.95;6.65;;;;;;;;;;5090330;27;20436;-77
2022/12/16 02:59:17;;;;;;;13.75;6.50;;;;;;;;;;5117437;27;20430;-78
2022/12/16 03:01:50;;;;;;;14.60;7.15;;;;;;;;;;5134673;27;20433;-78
2022/12/16 03:04:36;;;;;;;12.18;6.22;;;;;;;;;;5113735;28;20416;-78
2022/12/16 03:07:03;;;;;;;11.65;6.25;;;;;;;;;;5116171;27;20441;-77
2022/12/16 03:09:31;;;;;;;11.57;6.57;;;;;;;;;;5116876;27;20438;-77
2022/12/16 03:11:59;;;;;;;14.20;7.40;;;;;;;;;;5118052;27;20398;-77
2022/12/16 03:14:28;;;;;;;12.88;6.80;;;;;;;;;;5116171;27;20410;-77
2022/12/16 03:16:55;;;;;;;11.90;6.85;;;;;;;;;;5080349;28;20420;-77
2022/12/16 03:19:23;;;;;;;14.73;6.97;;;;;;;;;;5088217;27;20410;-77
2022/12/16 03:22:11;;;;;;;14.32;6.93;;;;;;;;;;5113648;27;20419;-78
2022/12/16 03:24:38;;;;;;;12.68;7.20;;;;;;;;;;5109798;28;20419;-77
2022/12/16 03:27:20;;;;;;;16.80;7.50;;;;;;;;;;5097265;28;20400;-78
2022/12/16 03:29:51;;;;;;;12.07;7.15;;;;;;;;;;5080038;28;20465;-77
2022/12/16 03:32:31;;;;;;;14.18;6.43;;;;;;;;;;5134044;27;20478;-77
2022/12/16 03:35:05;;;;;;;10.93;6.57;;;;;;;;;;5117030;27;20405;-77
2022/12/16 03:37:32;;;;;;;12.35;6.57;;;;;;;;;;5116217;27;20428;-77
2022/12/16 03:40:00;;;;;;;10.55;6.35;;;;;;;;;;5100307;27;20441;-77
2022/12/16 03:42:27;;;;;;;10.53;6.50;;;;;;;;;;5104707;28;20743;-77
2022/12/16 03:44:53;;;;;;;10.63;6.22;;;;;;;;;;5068841;28;20438;-77
2022/12/16 03:47:19;;;;;;;10.43;6.05;;;;;;;;;;5116025;27;20421;-76
2022/12/16 03:49:45;;;;;;;9.98;5.88;;;;;;;;;;5116409;27;20394;-76
2022/12/16 03:52:11;;;;;;;10.05;6.20;;;;;;;;;;5114767;27;20455;-77
2022/12/16 03:54:37;;;;;;;11.05;6.10;;;;;;;;;;5112611;27;20551;-78
2022/12/16 03:57:03;;;;;;;11.93;6.30;;;;;;;;;;5113553;27;20426;-77
2022/12/16 03:59:29;;;;;;;10.60;6.47;;;;;;;;;;5106193;27;20985;-77
2022/12/16 04:01:55;;;;;;;9.40;6.00;;;;;;;;;;5109215;28;20891;-77
2022/12/16 04:04:21;;;;;;;12.63;6.18;;;;;;;;;;5079536;28;20471;-77
2022/12/16 04:07:18;;;;;;;8.48;5.82;;;;;;;;;;5084568;27;20803;-77
2022/12/16 04:09:33;;;;;;;10.97;6.23;;;;;;;;;;5116780;27;20411;-78
2022/12/16 04:25:44;;;;;;;12.50;7.22;;;;;;;;;;5094910;28;20484;-78
2022/12/16 04:28:10;;;;;;;12.70;6.90;;;;;;;;;;5098106;27;20403;-76
2022/12/16 04:30:36;;;;;;;11.63;7.18;;;;;;;;;;5116464;27;20447;-76
